ctonlineauctions.com alexa rank chart, ctonlineauctions.com alexa rank daily changes

ctonlineauctions.com alexa rank chart, ctonlineauctions.com alexa rank daily changes

ctonlineauctions.com
Actual rank:
230 287

RANK HISTORY

Date Rank Diff
2017/11/20 230 287 -147
2017/11/19 230 434 +4 446
2017/11/18 225 988 -3 911
2017/11/17 229 899 +7 295
2017/11/16 222 604 +1 597
2017/11/15 221 007 +4 679
2017/11/14 216 328 +1 144
2017/11/13 215 184 -5 385
2017/11/12 220 569 -3 123
2017/11/11 223 692 +311
2017/11/10 223 381 +9 366
2017/11/09 214 015 +854
2017/11/08 213 161 -2 431
2017/11/07 215 592 -10 543
2017/11/06 226 135 +5 991
2017/11/05 220 144 -6 763
2017/11/04 226 907 -2 375
2017/11/03 229 282 +2 328
2017/11/02 226 954 +1 767
2017/11/01 225 187 +1 219
2017/10/31 223 968 +1 532
2017/10/30 222 436 +5 627
2017/10/29 216 809 +3 226
2017/10/28 213 583 -215
2017/10/27 213 798 -5 423
2017/10/26 219 221 +2 233
2017/10/25 216 988 +2 715
2017/10/24 214 273 +512
2017/10/23 213 761 -7 377
2017/10/22 221 138 +4 191
2017/10/21 216 947 +1 345
2017/10/20 215 602 -1 209
2017/10/19 216 811 -285
2017/10/18 217 096 -2 420
2017/10/17 219 516 -1 160
2017/10/16 220 676 -2 931
2017/10/14 223 607 -2 956
2017/10/13 226 563 -276
2017/10/12 226 839 +1 204
2017/10/11 225 635 +14 318
2017/10/10 211 317 -3 353
2017/10/09 214 670 +1 977
2017/10/08 212 693 +941
2017/10/07 211 752 +2 899
2017/10/06 208 853 +1 642
2017/10/05 207 211 +8 063
2017/10/04 199 148 +7 664
2017/10/03 191 484 +1 526
2017/10/02 189 958 -1 199
2017/10/01 191 157 +369
2017/09/30 190 788 -3 500
2017/09/29 194 288 +1 043
2017/09/28 193 245 +2 122
2017/09/27 191 123 +3 770
2017/09/26 187 353 -1 991
2017/09/25 189 344 -2 862
2017/09/24 192 206 -182
2017/09/23 192 388 -2 546
2017/09/22 194 934

WIDGET FOR YOUR SITE

DOMAINS WITH THE NEAREST RANK

Domain Rank
xart.video 230 282
nopuedocreer.com 230 283
edu4schools.gr 230 284
hlaxi.xyz 230 285
versicherungsbote.de 230 286
ctonlineauctions.com 230 287
chadstone.com.au 230 288
nmlindia.org 230 289
molleindustria.org 230 290
fleet-up.com 230 291
mtg.gr.jp 230 292

DOMAINS WITH THE NEAREST RANK BY TLD .com

Domain Rank
pinping01.com 230 273
kangoexpress.com 230 274
tempus-termine.com 230 276
naminum.com 230 278
nopuedocreer.com 230 283
ctonlineauctions.com 230 287
fleet-up.com 230 291
zjuqsc.com 230 293
juanagustin.com 230 294
tripcrafters.com 230 295
placementtester.com 230 296